sensor_id;sensor_type;location;lat;lon;timestamp;P1;durP1;ratioP1;P2;durP2;ratioP2
17993;SDS011;9122;48.406;9.984;2022-08-20T00:00:37;20.83;;;17.30;;
17993;SDS011;9122;48.406;9.984;2022-08-20T00:03:24;18.17;;;15.60;;
17993;SDS011;9122;48.406;9.984;2022-08-20T00:06:19;18.63;;;16.67;;
17993;SDS011;9122;48.406;9.984;2022-08-20T00:09:06;18.47;;;16.57;;
17993;SDS011;9122;48.406;9.984;2022-08-20T00:11:50;17.63;;;15.20;;
17993;SDS011;9122;48.406;9.984;2022-08-20T00:14:36;17.47;;;15.23;;
17993;SDS011;9122;48.406;9.984;2022-08-20T00:17:21;19.87;;;16.37;;
17993;SDS011;9122;48.406;9.984;2022-08-20T00:20:07;17.20;;;15.40;;
17993;SDS011;9122;48.406;9.984;2022-08-20T00:22:55;17.07;;;14.93;;
17993;SDS011;9122;48.406;9.984;2022-08-20T00:25:40;17.77;;;14.47;;
17993;SDS011;9122;48.406;9.984;2022-08-20T00:28:26;16.83;;;15.03;;
17993;SDS011;9122;48.406;9.984;2022-08-20T00:31:12;15.93;;;14.10;;
17993;SDS011;9122;48.406;9.984;2022-08-20T00:34:01;15.53;;;14.03;;
17993;SDS011;9122;48.406;9.984;2022-08-20T00:36:45;15.13;;;13.53;;
17993;SDS011;9122;48.406;9.984;2022-08-20T00:39:30;17.10;;;13.60;;
17993;SDS011;9122;48.406;9.984;2022-08-20T00:42:14;14.53;;;13.03;;
17993;SDS011;9122;48.406;9.984;2022-08-20T00:44:59;14.03;;;12.67;;
17993;SDS011;9122;48.406;9.984;2022-08-20T00:47:44;14.93;;;13.23;;
17993;SDS011;9122;48.406;9.984;2022-08-20T00:50:33;14.27;;;12.00;;
17993;SDS011;9122;48.406;9.984;2022-08-20T00:53:20;14.77;;;12.43;;
17993;SDS011;9122;48.406;9.984;2022-08-20T00:56:07;13.57;;;12.13;;
17993;SDS011;9122;48.406;9.984;2022-08-20T00:58:53;14.83;;;12.73;;
17993;SDS011;9122;48.406;9.984;2022-08-20T01:01:39;13.43;;;12.03;;
17993;SDS011;9122;48.406;9.984;2022-08-20T01:04:28;12.77;;;11.57;;
17993;SDS011;9122;48.406;9.984;2022-08-20T01:07:14;14.53;;;11.07;;
17993;SDS011;9122;48.406;9.984;2022-08-20T01:10:10;12.40;;;11.10;;
17993;SDS011;9122;48.406;9.984;2022-08-20T01:12:57;11.83;;;10.43;;
17993;SDS011;9122;48.406;9.984;2022-08-20T01:15:43;10.80;;;9.80;;
17993;SDS011;9122;48.406;9.984;2022-08-20T01:18:29;11.67;;;10.57;;
17993;SDS011;9122;48.406;9.984;2022-08-20T01:21:14;11.37;;;10.30;;
17993;SDS011;9122;48.406;9.984;2022-08-20T01:24:16;12.17;;;9.80;;
17993;SDS011;9122;48.406;9.984;2022-08-20T01:27:08;11.03;;;10.03;;
17993;SDS011;9122;48.406;9.984;2022-08-20T01:29:53;9.60;;;8.70;;
17993;SDS011;9122;48.406;9.984;2022-08-20T01:32:37;9.30;;;8.40;;
17993;SDS011;9122;48.406;9.984;2022-08-20T01:35:23;11.67;;;8.33;;
17993;SDS011;9122;48.406;9.984;2022-08-20T01:38:08;11.47;;;9.37;;
17993;SDS011;9122;48.406;9.984;2022-08-20T01:44:12;9.63;;;8.73;;
17993;SDS011;9122;48.406;9.984;2022-08-20T01:46:57;7.33;;;6.77;;
17993;SDS011;9122;48.406;9.984;2022-08-20T01:50:00;6.17;;;5.57;;
17993;SDS011;9122;48.406;9.984;2022-08-20T01:55:40;6.10;;;4.90;;
17993;SDS011;9122;48.406;9.984;2022-08-20T01:58:24;6.20;;;5.70;;
17993;SDS011;9122;48.406;9.984;2022-08-20T02:01:45;5.33;;;4.83;;
17993;SDS011;9122;48.406;9.984;2022-08-20T02:04:23;6.33;;;4.93;;
17993;SDS011;9122;48.406;9.984;2022-08-20T02:07:15;5.43;;;5.03;;
17993;SDS011;9122;48.406;9.984;2022-08-20T02:10:05;6.10;;;5.50;;
17993;SDS011;9122;48.406;9.984;2022-08-20T02:12:52;5.17;;;4.73;;
17993;SDS011;9122;48.406;9.984;2022-08-20T02:15:36;5.07;;;4.67;;
17993;SDS011;9122;48.406;9.984;2022-08-20T02:18:21;5.10;;;4.33;;
17993;SDS011;9122;48.406;9.984;2022-08-20T02:21:05;4.20;;;3.90;;
17993;SDS011;9122;48.406;9.984;2022-08-20T02:23:50;4.00;;;3.70;;
17993;SDS011;9122;48.406;9.984;2022-08-20T02:26:34;4.10;;;3.80;;
17993;SDS011;9122;48.406;9.984;2022-08-20T02:29:20;3.77;;;3.43;;
17993;SDS011;9122;48.406;9.984;2022-08-20T02:32:07;4.17;;;3.67;;
17993;SDS011;9122;48.406;9.984;2022-08-20T02:34:51;3.53;;;3.33;;
17993;SDS011;9122;48.406;9.984;2022-08-20T02:37:36;4.13;;;2.93;;
17993;SDS011;9122;48.406;9.984;2022-08-20T02:40:22;3.53;;;3.23;;
17993;SDS011;9122;48.406;9.984;2022-08-20T02:43:09;2.93;;;2.73;;
17993;SDS011;9122;48.406;9.984;2022-08-20T02:45:55;4.27;;;3.00;;
17993;SDS011;9122;48.406;9.984;2022-08-20T02:48:39;4.60;;;4.20;;
17993;SDS011;9122;48.406;9.984;2022-08-20T02:51:25;4.07;;;3.23;;
17993;SDS011;9122;48.406;9.984;2022-08-20T02:54:10;3.17;;;2.87;;
17993;SDS011;9122;48.406;9.984;2022-08-20T02:56:55;3.30;;;3.10;;
17993;SDS011;9122;48.406;9.984;2022-08-20T02:59:40;3.97;;;3.30;;
17993;SDS011;9122;48.406;9.984;2022-08-20T03:02:26;3.40;;;3.10;;
17993;SDS011;9122;48.406;9.984;2022-08-20T03:05:11;3.30;;;3.10;;
17993;SDS011;9122;48.406;9.984;2022-08-20T03:07:56;5.60;;;3.23;;
17993;SDS011;9122;48.406;9.984;2022-08-20T03:10:42;2.87;;;2.67;;
17993;SDS011;9122;48.406;9.984;2022-08-20T03:13:28;3.50;;;3.20;;
17993;SDS011;9122;48.406;9.984;2022-08-20T03:16:13;3.53;;;3.23;;
17993;SDS011;9122;48.406;9.984;2022-08-20T03:18:57;3.50;;;3.20;;
17993;SDS011;9122;48.406;9.984;2022-08-20T03:21:42;4.13;;;3.33;;
17993;SDS011;9122;48.406;9.984;2022-08-20T03:24:27;3.33;;;3.03;;
17993;SDS011;9122;48.406;9.984;2022-08-20T03:27:11;2.90;;;2.70;;
17993;SDS011;9122;48.406;9.984;2022-08-20T03:29:55;2.90;;;2.70;;
17993;SDS011;9122;48.406;9.984;2022-08-20T03:32:40;3.10;;;2.57;;
17993;SDS011;9122;48.406;9.984;2022-08-20T03:35:25;2.57;;;2.37;;
17993;SDS011;9122;48.406;9.984;2022-08-20T03:38:12;3.10;;;2.90;;
17993;SDS011;9122;48.406;9.984;2022-08-20T03:40:58;3.57;;;3.30;;
17993;SDS011;9122;48.406;9.984;2022-08-20T03:43:44;3.23;;;3.03;;
17993;SDS011;9122;48.406;9.984;2022-08-20T03:46:28;3.20;;;2.90;;
17993;SDS011;9122;48.406;9.984;2022-08-20T03:49:13;3.50;;;3.30;;
17993;SDS011;9122;48.406;9.984;2022-08-20T03:51:58;2.77;;;2.57;;
17993;SDS011;9122;48.406;9.984;2022-08-20T03:54:44;3.13;;;2.93;;
17993;SDS011;9122;48.406;9.984;2022-08-20T03:57:28;3.00;;;2.70;;
17993;SDS011;9122;48.406;9.984;2022-08-20T04:00:13;3.00;;;2.80;;
17993;SDS011;9122;48.406;9.984;2022-08-20T04:03:02;3.20;;;3.00;;
17993;SDS011;9122;48.406;9.984;2022-08-20T04:05:47;3.37;;;3.07;;
17993;SDS011;9122;48.406;9.984;2022-08-20T04:08:32;2.93;;;2.73;;
17993;SDS011;9122;48.406;9.984;2022-08-20T04:11:17;3.40;;;3.20;;
17993;SDS011;9122;48.406;9.984;2022-08-20T04:14:02;3.40;;;3.10;;
17993;SDS011;9122;48.406;9.984;2022-08-20T04:16:47;4.37;;;3.57;;
17993;SDS011;9122;48.406;9.984;2022-08-20T04:19:31;3.20;;;3.00;;
17993;SDS011;9122;48.406;9.984;2022-08-20T04:22:16;3.90;;;3.50;;
17993;SDS011;9122;48.406;9.984;2022-08-20T04:25:00;3.90;;;3.60;;
17993;SDS011;9122;48.406;9.984;2022-08-20T04:27:44;3.27;;;3.07;;
17993;SDS011;9122;48.406;9.984;2022-08-20T04:30:29;3.50;;;3.30;;
17993;SDS011;9122;48.406;9.984;2022-08-20T04:33:15;3.30;;;3.10;;
17993;SDS011;9122;48.406;9.984;2022-08-20T04:35:59;3.73;;;3.30;;
17993;SDS011;9122;48.406;9.984;2022-08-20T04:38:45;4.13;;;3.83;;
17993;SDS011;9122;48.406;9.984;2022-08-20T04:41:30;3.60;;;3.30;;
17993;SDS011;9122;48.406;9.984;2022-08-20T04:44:14;3.47;;;3.23;;
17993;SDS011;9122;48.406;9.984;2022-08-20T04:46:59;3.47;;;3.27;;
17993;SDS011;9122;48.406;9.984;2022-08-20T04:49:44;4.03;;;3.73;;
17993;SDS011;9122;48.406;9.984;2022-08-20T04:52:29;3.37;;;3.10;;
17993;SDS011;9122;48.406;9.984;2022-08-20T04:55:16;3.37;;;3.17;;
17993;SDS011;9122;48.406;9.984;2022-08-20T04:58:02;3.70;;;3.40;;
17993;SDS011;9122;48.406;9.984;2022-08-20T05:00:48;4.37;;;3.97;;
17993;SDS011;9122;48.406;9.984;2022-08-20T05:03:35;3.20;;;3.00;;
17993;SDS011;9122;48.406;9.984;2022-08-20T05:06:22;3.57;;;3.33;;
17993;SDS011;9122;48.406;9.984;2022-08-20T05:09:10;3.90;;;3.60;;
17993;SDS011;9122;48.406;9.984;2022-08-20T05:11:54;4.07;;;3.77;;
17993;SDS011;9122;48.406;9.984;2022-08-20T05:14:39;3.50;;;3.20;;
17993;SDS011;9122;48.406;9.984;2022-08-20T05:17:25;3.70;;;3.40;;
17993;SDS011;9122;48.406;9.984;2022-08-20T05:20:12;3.60;;;3.40;;
17993;SDS011;9122;48.406;9.984;2022-08-20T05:23:00;4.07;;;3.83;;
17993;SDS011;9122;48.406;9.984;2022-08-20T05:25:46;4.27;;;3.87;;
17993;SDS011;9122;48.406;9.984;2022-08-20T05:28:34;4.13;;;3.73;;
17993;SDS011;9122;48.406;9.984;2022-08-20T05:31:21;4.50;;;4.10;;
17993;SDS011;9122;48.406;9.984;2022-08-20T05:34:07;4.50;;;4.13;;
17993;SDS011;9122;48.406;9.984;2022-08-20T05:36:53;4.43;;;4.07;;
17993;SDS011;9122;48.406;9.984;2022-08-20T05:39:37;4.43;;;4.13;;
17993;SDS011;9122;48.406;9.984;2022-08-20T05:42:22;4.40;;;4.07;;
17993;SDS011;9122;48.406;9.984;2022-08-20T05:45:06;4.00;;;3.80;;
17993;SDS011;9122;48.406;9.984;2022-08-20T05:47:51;4.13;;;3.80;;
17993;SDS011;9122;48.406;9.984;2022-08-20T05:50:36;4.37;;;4.07;;
17993;SDS011;9122;48.406;9.984;2022-08-20T05:53:23;4.20;;;3.90;;
17993;SDS011;9122;48.406;9.984;2022-08-20T05:56:08;4.53;;;4.23;;
17993;SDS011;9122;48.406;9.984;2022-08-20T05:58:53;4.43;;;3.90;;
17993;SDS011;9122;48.406;9.984;2022-08-20T06:01:38;5.53;;;5.03;;
17993;SDS011;9122;48.406;9.984;2022-08-20T06:04:24;4.90;;;4.40;;
17993;SDS011;9122;48.406;9.984;2022-08-20T06:07:10;4.77;;;4.40;;
17993;SDS011;9122;48.406;9.984;2022-08-20T06:09:55;4.53;;;4.23;;
17993;SDS011;9122;48.406;9.984;2022-08-20T06:12:39;5.63;;;4.57;;
17993;SDS011;9122;48.406;9.984;2022-08-20T06:15:27;4.33;;;4.03;;
17993;SDS011;9122;48.406;9.984;2022-08-20T06:18:11;4.73;;;3.53;;
17993;SDS011;9122;48.406;9.984;2022-08-20T06:20:56;4.53;;;4.13;;
17993;SDS011;9122;48.406;9.984;2022-08-20T06:23:41;4.37;;;4.07;;
17993;SDS011;9122;48.406;9.984;2022-08-20T06:26:25;4.67;;;4.37;;
17993;SDS011;9122;48.406;9.984;2022-08-20T06:29:10;5.50;;;4.93;;
17993;SDS011;9122;48.406;9.984;2022-08-20T06:31:54;7.00;;;4.40;;
17993;SDS011;9122;48.406;9.984;2022-08-20T06:34:39;5.37;;;4.93;;
17993;SDS011;9122;48.406;9.984;2022-08-20T06:37:24;5.07;;;4.63;;
17993;SDS011;9122;48.406;9.984;2022-08-20T06:40:11;5.23;;;4.73;;
17993;SDS011;9122;48.406;9.984;2022-08-20T06:43:00;5.53;;;5.03;;
17993;SDS011;9122;48.406;9.984;2022-08-20T06:45:45;7.63;;;4.57;;
17993;SDS011;9122;48.406;9.984;2022-08-20T06:48:29;5.10;;;4.80;;
17993;SDS011;9122;48.406;9.984;2022-08-20T06:51:14;5.87;;;4.97;;
17993;SDS011;9122;48.406;9.984;2022-08-20T06:53:59;5.30;;;4.80;;
17993;SDS011;9122;48.406;9.984;2022-08-20T06:56:43;5.03;;;4.63;;
17993;SDS011;9122;48.406;9.984;2022-08-20T06:59:27;4.87;;;4.50;;
17993;SDS011;9122;48.406;9.984;2022-08-20T07:02:12;4.60;;;4.20;;
17993;SDS011;9122;48.406;9.984;2022-08-20T07:04:57;4.83;;;4.43;;
17993;SDS011;9122;48.406;9.984;2022-08-20T07:07:47;4.23;;;3.93;;
17993;SDS011;9122;48.406;9.984;2022-08-20T07:10:33;10.73;;;4.67;;
17993;SDS011;9122;48.406;9.984;2022-08-20T07:13:18;4.30;;;4.00;;
17993;SDS011;9122;48.406;9.984;2022-08-20T07:16:03;5.40;;;4.10;;
17993;SDS011;9122;48.406;9.984;2022-08-20T07:18:47;4.20;;;3.90;;
17993;SDS011;9122;48.406;9.984;2022-08-20T07:21:32;5.07;;;4.70;;
17993;SDS011;9122;48.406;9.984;2022-08-20T07:24:17;3.77;;;3.53;;
17993;SDS011;9122;48.406;9.984;2022-08-20T07:27:02;5.23;;;4.83;;
17993;SDS011;9122;48.406;9.984;2022-08-20T07:29:47;6.50;;;4.37;;
17993;SDS011;9122;48.406;9.984;2022-08-20T07:32:52;3.87;;;3.53;;
17993;SDS011;9122;48.406;9.984;2022-08-20T07:35:37;4.00;;;3.70;;
17993;SDS011;9122;48.406;9.984;2022-08-20T07:38:22;4.60;;;4.20;;
17993;SDS011;9122;48.406;9.984;2022-08-20T07:41:08;4.50;;;4.20;;
17993;SDS011;9122;48.406;9.984;2022-08-20T07:43:55;4.33;;;3.93;;
17993;SDS011;9122;48.406;9.984;2022-08-20T07:46:39;6.20;;;4.20;;
17993;SDS011;9122;48.406;9.984;2022-08-20T07:49:24;4.53;;;4.20;;
17993;SDS011;9122;48.406;9.984;2022-08-20T07:52:08;4.47;;;4.10;;
17993;SDS011;9122;48.406;9.984;2022-08-20T07:54:53;4.60;;;4.17;;
17993;SDS011;9122;48.406;9.984;2022-08-20T07:57:37;4.67;;;4.27;;
17993;SDS011;9122;48.406;9.984;2022-08-20T08:00:22;6.97;;;5.00;;
17993;SDS011;9122;48.406;9.984;2022-08-20T08:03:07;5.97;;;5.40;;
17993;SDS011;9122;48.406;9.984;2022-08-20T08:05:52;5.17;;;4.77;;
17993;SDS011;9122;48.406;9.984;2022-08-20T08:08:37;5.23;;;4.53;;
17993;SDS011;9122;48.406;9.984;2022-08-20T08:11:23;5.80;;;5.13;;
17993;SDS011;9122;48.406;9.984;2022-08-20T08:14:07;6.03;;;5.53;;
17993;SDS011;9122;48.406;9.984;2022-08-20T08:16:54;5.83;;;5.43;;
17993;SDS011;9122;48.406;9.984;2022-08-20T08:19:45;5.73;;;5.07;;
17993;SDS011;9122;48.406;9.984;2022-08-20T08:22:32;5.83;;;4.70;;
17993;SDS011;9122;48.406;9.984;2022-08-20T08:25:16;3.90;;;3.60;;
17993;SDS011;9122;48.406;9.984;2022-08-20T08:28:01;4.13;;;3.83;;
17993;SDS011;9122;48.406;9.984;2022-08-20T08:30:47;4.27;;;3.97;;
17993;SDS011;9122;48.406;9.984;2022-08-20T08:33:32;5.90;;;5.40;;
17993;SDS011;9122;48.406;9.984;2022-08-20T08:36:16;4.93;;;4.10;;
17993;SDS011;9122;48.406;9.984;2022-08-20T08:39:01;5.10;;;4.60;;
17993;SDS011;9122;48.406;9.984;2022-08-20T08:41:47;4.87;;;4.47;;
17993;SDS011;9122;48.406;9.984;2022-08-20T08:44:33;5.10;;;4.80;;
17993;SDS011;9122;48.406;9.984;2022-08-20T08:47:28;4.20;;;3.90;;
17993;SDS011;9122;48.406;9.984;2022-08-20T08:50:20;5.38;;;4.57;;
17993;SDS011;9122;48.406;9.984;2022-08-20T08:53:26;5.63;;;4.27;;
17993;SDS011;9122;48.406;9.984;2022-08-20T08:56:16;4.33;;;4.03;;
17993;SDS011;9122;48.406;9.984;2022-08-20T08:59:05;5.93;;;3.20;;
17993;SDS011;9122;48.406;9.984;2022-08-20T09:01:52;5.47;;;5.07;;
17993;SDS011;9122;48.406;9.984;2022-08-20T09:04:39;5.37;;;4.87;;
17993;SDS011;9122;48.406;9.984;2022-08-20T09:07:24;4.05;;;3.75;;
17993;SDS011;9122;48.406;9.984;2022-08-20T09:10:14;4.90;;;4.33;;
17993;SDS011;9122;48.406;9.984;2022-08-20T09:13:00;2.47;;;2.35;;
17993;SDS011;9122;48.406;9.984;2022-08-20T09:15:46;3.42;;;3.00;;
17993;SDS011;9122;48.406;9.984;2022-08-20T09:18:30;2.67;;;2.58;;
17993;SDS011;9122;48.406;9.984;2022-08-20T09:21:15;2.28;;;2.17;;
17993;SDS011;9122;48.406;9.984;2022-08-20T09:24:00;2.65;;;2.55;;
17993;SDS011;9122;48.406;9.984;2022-08-20T09:26:45;2.45;;;2.35;;
17993;SDS011;9122;48.406;9.984;2022-08-20T09:29:29;2.53;;;2.42;;
17993;SDS011;9122;48.406;9.984;2022-08-20T09:32:16;2.58;;;2.40;;
17993;SDS011;9122;48.406;9.984;2022-08-20T09:35:03;2.95;;;2.75;;
17993;SDS011;9122;48.406;9.984;2022-08-20T09:37:48;2.72;;;2.50;;
17993;SDS011;9122;48.406;9.984;2022-08-20T09:40:33;3.28;;;2.80;;
17993;SDS011;9122;48.406;9.984;2022-08-20T09:43:17;2.67;;;2.47;;
17993;SDS011;9122;48.406;9.984;2022-08-20T09:46:02;2.42;;;2.33;;
17993;SDS011;9122;48.406;9.984;2022-08-20T09:48:47;6.53;;;2.03;;
17993;SDS011;9122;48.406;9.984;2022-08-20T09:51:31;2.47;;;2.38;;
17993;SDS011;9122;48.406;9.984;2022-08-20T09:54:16;2.35;;;2.25;;
17993;SDS011;9122;48.406;9.984;2022-08-20T09:57:03;2.20;;;2.10;;
17993;SDS011;9122;48.406;9.984;2022-08-20T10:00:00;2.50;;;2.40;;
17993;SDS011;9122;48.406;9.984;2022-08-20T10:02:48;2.00;;;1.90;;
17993;SDS011;9122;48.406;9.984;2022-08-20T10:05:32;2.08;;;1.98;;
17993;SDS011;9122;48.406;9.984;2022-08-20T10:08:17;2.05;;;1.95;;
17993;SDS011;9122;48.406;9.984;2022-08-20T10:11:02;2.33;;;2.22;;
17993;SDS011;9122;48.406;9.984;2022-08-20T10:13:46;2.25;;;2.15;;
17993;SDS011;9122;48.406;9.984;2022-08-20T10:16:32;1.73;;;1.63;;
17993;SDS011;9122;48.406;9.984;2022-08-20T10:19:16;2.28;;;2.17;;
17993;SDS011;9122;48.406;9.984;2022-08-20T10:22:02;2.50;;;2.30;;
17993;SDS011;9122;48.406;9.984;2022-08-20T10:24:47;2.45;;;2.35;;
17993;SDS011;9122;48.406;9.984;2022-08-20T10:27:32;2.33;;;2.13;;
17993;SDS011;9122;48.406;9.984;2022-08-20T10:30:16;2.13;;;2.03;;
17993;SDS011;9122;48.406;9.984;2022-08-20T10:33:01;2.15;;;2.03;;
17993;SDS011;9122;48.406;9.984;2022-08-20T10:35:46;2.00;;;1.90;;
17993;SDS011;9122;48.406;9.984;2022-08-20T10:38:30;2.28;;;2.17;;
17993;SDS011;9122;48.406;9.984;2022-08-20T10:41:15;4.57;;;2.30;;
17993;SDS011;9122;48.406;9.984;2022-08-20T10:43:59;2.22;;;2.13;;
17993;SDS011;9122;48.406;9.984;2022-08-20T10:46:44;3.13;;;2.92;;
17993;SDS011;9122;48.406;9.984;2022-08-20T10:49:32;2.35;;;2.25;;
17993;SDS011;9122;48.406;9.984;2022-08-20T10:52:17;2.42;;;2.08;;
17993;SDS011;9122;48.406;9.984;2022-08-20T10:55:03;2.92;;;2.72;;
17993;SDS011;9122;48.406;9.984;2022-08-20T10:57:47;2.40;;;2.20;;
17993;SDS011;9122;48.406;9.984;2022-08-20T11:00:32;2.55;;;2.35;;
17993;SDS011;9122;48.406;9.984;2022-08-20T11:03:17;2.10;;;2.00;;
17993;SDS011;9122;48.406;9.984;2022-08-20T11:06:02;2.10;;;2.00;;
17993;SDS011;9122;48.406;9.984;2022-08-20T11:08:46;1.85;;;1.75;;
17993;SDS011;9122;48.406;9.984;2022-08-20T11:11:31;1.90;;;1.80;;
17993;SDS011;9122;48.406;9.984;2022-08-20T11:14:15;1.95;;;1.85;;
17993;SDS011;9122;48.406;9.984;2022-08-20T11:17:00;2.47;;;2.28;;
17993;SDS011;9122;48.406;9.984;2022-08-20T11:19:45;2.85;;;2.65;;
17993;SDS011;9122;48.406;9.984;2022-08-20T11:22:30;3.03;;;2.83;;
17993;SDS011;9122;48.406;9.984;2022-08-20T11:25:14;2.78;;;2.58;;
17993;SDS011;9122;48.406;9.984;2022-08-20T11:27:59;2.95;;;2.75;;
17993;SDS011;9122;48.406;9.984;2022-08-20T11:30:43;2.50;;;2.35;;
17993;SDS011;9122;48.406;9.984;2022-08-20T11:33:28;2.50;;;2.40;;
17993;SDS011;9122;48.406;9.984;2022-08-20T11:36:13;2.67;;;2.47;;
17993;SDS011;9122;48.406;9.984;2022-08-20T11:38:58;2.88;;;2.67;;
17993;SDS011;9122;48.406;9.984;2022-08-20T11:41:42;4.00;;;3.10;;
17993;SDS011;9122;48.406;9.984;2022-08-20T11:44:27;6.13;;;3.58;;
17993;SDS011;9122;48.406;9.984;2022-08-20T11:47:21;5.70;;;3.47;;
17993;SDS011;9122;48.406;9.984;2022-08-20T11:50:09;3.15;;;2.90;;
17993;SDS011;9122;48.406;9.984;2022-08-20T11:52:56;3.33;;;3.10;;
17993;SDS011;9122;48.406;9.984;2022-08-20T11:55:41;3.72;;;3.42;;
17993;SDS011;9122;48.406;9.984;2022-08-20T11:58:26;2.97;;;2.78;;
17993;SDS011;9122;48.406;9.984;2022-08-20T12:01:10;4.60;;;3.33;;
17993;SDS011;9122;48.406;9.984;2022-08-20T12:03:55;3.78;;;3.47;;
17993;SDS011;9122;48.406;9.984;2022-08-20T12:06:40;3.38;;;3.10;;
17993;SDS011;9122;48.406;9.984;2022-08-20T12:09:24;3.38;;;3.17;;
17993;SDS011;9122;48.406;9.984;2022-08-20T12:12:09;3.35;;;3.05;;
17993;SDS011;9122;48.406;9.984;2022-08-20T12:14:54;3.28;;;3.08;;
17993;SDS011;9122;48.406;9.984;2022-08-20T12:17:38;3.15;;;2.95;;
17993;SDS011;9122;48.406;9.984;2022-08-20T12:20:23;3.35;;;3.05;;
17993;SDS011;9122;48.406;9.984;2022-08-20T12:23:08;3.20;;;3.00;;
17993;SDS011;9122;48.406;9.984;2022-08-20T12:25:52;3.50;;;3.30;;
17993;SDS011;9122;48.406;9.984;2022-08-20T12:28:36;3.22;;;3.03;;
17993;SDS011;9122;48.406;9.984;2022-08-20T12:31:21;2.80;;;2.60;;
17993;SDS011;9122;48.406;9.984;2022-08-20T12:34:05;5.28;;;2.72;;
17993;SDS011;9122;48.406;9.984;2022-08-20T12:36:50;9.45;;;3.45;;
17993;SDS011;9122;48.406;9.984;2022-08-20T12:39:49;2.30;;;2.20;;
17993;SDS011;9122;48.406;9.984;2022-08-20T12:42:35;3.45;;;2.33;;
17993;SDS011;9122;48.406;9.984;2022-08-20T12:45:20;3.00;;;2.58;;
17993;SDS011;9122;48.406;9.984;2022-08-20T12:48:06;2.50;;;2.30;;
17993;SDS011;9122;48.406;9.984;2022-08-20T12:50:53;6.53;;;3.45;;
17993;SDS011;9122;48.406;9.984;2022-08-20T12:53:37;3.47;;;3.17;;
17993;SDS011;9122;48.406;9.984;2022-08-20T12:56:22;5.95;;;3.13;;
17993;SDS011;9122;48.406;9.984;2022-08-20T12:59:06;3.58;;;3.28;;
17993;SDS011;9122;48.406;9.984;2022-08-20T13:01:51;3.70;;;3.40;;
17993;SDS011;9122;48.406;9.984;2022-08-20T13:04:36;5.30;;;4.10;;
17993;SDS011;9122;48.406;9.984;2022-08-20T13:07:21;5.93;;;3.03;;
17993;SDS011;9122;48.406;9.984;2022-08-20T13:10:06;3.55;;;3.25;;
17993;SDS011;9122;48.406;9.984;2022-08-20T13:12:53;3.30;;;3.00;;
17993;SDS011;9122;48.406;9.984;2022-08-20T13:15:38;2.75;;;2.55;;
17993;SDS011;9122;48.406;9.984;2022-08-20T13:18:23;3.17;;;2.97;;
17993;SDS011;9122;48.406;9.984;2022-08-20T13:21:07;3.55;;;3.25;;
17993;SDS011;9122;48.406;9.984;2022-08-20T13:23:52;3.55;;;2.95;;
17993;SDS011;9122;48.406;9.984;2022-08-20T13:26:36;3.60;;;3.30;;
17993;SDS011;9122;48.406;9.984;2022-08-20T13:29:21;2.63;;;2.42;;
17993;SDS011;9122;48.406;9.984;2022-08-20T13:32:05;3.30;;;3.05;;
17993;SDS011;9122;48.406;9.984;2022-08-20T13:34:50;2.90;;;2.70;;
17993;SDS011;9122;48.406;9.984;2022-08-20T13:37:34;4.27;;;3.07;;
17993;SDS011;9122;48.406;9.984;2022-08-20T13:40:19;2.97;;;2.77;;
17993;SDS011;9122;48.406;9.984;2022-08-20T13:43:04;3.50;;;2.13;;
17993;SDS011;9122;48.406;9.984;2022-08-20T13:45:48;2.67;;;2.47;;
17993;SDS011;9122;48.406;9.984;2022-08-20T13:48:32;2.00;;;1.90;;
17993;SDS011;9122;48.406;9.984;2022-08-20T13:51:17;2.17;;;2.08;;
17993;SDS011;9122;48.406;9.984;2022-08-20T13:54:01;1.87;;;1.77;;
17993;SDS011;9122;48.406;9.984;2022-08-20T13:56:46;1.52;;;1.42;;
17993;SDS011;9122;48.406;9.984;2022-08-20T13:59:33;1.63;;;1.52;;
17993;SDS011;9122;48.406;9.984;2022-08-20T14:02:22;1.75;;;1.65;;
17993;SDS011;9122;48.406;9.984;2022-08-20T14:05:07;1.67;;;1.27;;
17993;SDS011;9122;48.406;9.984;2022-08-20T14:07:52;1.42;;;1.33;;
17993;SDS011;9122;48.406;9.984;2022-08-20T14:10:37;2.33;;;1.42;;
17993;SDS011;9122;48.406;9.984;2022-08-20T14:13:23;1.38;;;1.33;;
17993;SDS011;9122;48.406;9.984;2022-08-20T14:16:08;1.73;;;1.63;;
17993;SDS011;9122;48.406;9.984;2022-08-20T14:18:53;1.20;;;1.20;;
17993;SDS011;9122;48.406;9.984;2022-08-20T14:21:39;1.60;;;1.50;;
17993;SDS011;9122;48.406;9.984;2022-08-20T14:24:23;2.15;;;1.40;;
17993;SDS011;9122;48.406;9.984;2022-08-20T14:27:07;1.27;;;1.20;;
17993;SDS011;9122;48.406;9.984;2022-08-20T14:29:52;1.73;;;1.63;;
17993;SDS011;9122;48.406;9.984;2022-08-20T14:32:37;1.50;;;1.40;;
17993;SDS011;9122;48.406;9.984;2022-08-20T14:35:21;2.70;;;1.30;;
17993;SDS011;9122;48.406;9.984;2022-08-20T14:38:06;1.02;;;1.02;;
17993;SDS011;9122;48.406;9.984;2022-08-20T14:40:50;1.13;;;1.13;;
17993;SDS011;9122;48.406;9.984;2022-08-20T14:43:35;1.13;;;1.13;;
17993;SDS011;9122;48.406;9.984;2022-08-20T14:46:20;1.73;;;1.63;;
17993;SDS011;9122;48.406;9.984;2022-08-20T14:49:04;1.30;;;1.20;;
17993;SDS011;9122;48.406;9.984;2022-08-20T14:51:48;1.50;;;1.40;;
17993;SDS011;9122;48.406;9.984;2022-08-20T14:54:33;1.77;;;1.25;;
17993;SDS011;9122;48.406;9.984;2022-08-20T14:57:19;1.02;;;1.00;;
17993;SDS011;9122;48.406;9.984;2022-08-20T15:00:05;1.85;;;1.13;;
17993;SDS011;9122;48.406;9.984;2022-08-20T15:02:54;1.27;;;1.17;;
17993;SDS011;9122;48.406;9.984;2022-08-20T15:05:38;0.95;;;0.95;;
17993;SDS011;9122;48.406;9.984;2022-08-20T15:08:23;4.68;;;1.20;;
17993;SDS011;9122;48.406;9.984;2022-08-20T15:11:07;0.70;;;0.70;;
17993;SDS011;9122;48.406;9.984;2022-08-20T15:13:51;1.20;;;0.85;;
17993;SDS011;9122;48.406;9.984;2022-08-20T15:16:37;1.10;;;1.10;;
17993;SDS011;9122;48.406;9.984;2022-08-20T15:19:22;2.85;;;1.10;;
17993;SDS011;9122;48.406;9.984;2022-08-20T15:22:06;1.00;;;1.00;;
17993;SDS011;9122;48.406;9.984;2022-08-20T15:24:51;0.88;;;0.88;;
17993;SDS011;9122;48.406;9.984;2022-08-20T15:27:36;0.80;;;0.80;;
17993;SDS011;9122;48.406;9.984;2022-08-20T15:30:21;1.20;;;1.20;;
17993;SDS011;9122;48.406;9.984;2022-08-20T15:33:07;0.70;;;0.70;;
17993;SDS011;9122;48.406;9.984;2022-08-20T15:35:52;0.90;;;0.90;;
17993;SDS011;9122;48.406;9.984;2022-08-20T15:38:36;0.88;;;0.88;;
17993;SDS011;9122;48.406;9.984;2022-08-20T15:41:21;0.80;;;0.80;;
17993;SDS011;9122;48.406;9.984;2022-08-20T15:44:05;0.80;;;0.80;;
17993;SDS011;9122;48.406;9.984;2022-08-20T15:46:50;0.70;;;0.70;;
17993;SDS011;9122;48.406;9.984;2022-08-20T15:49:37;1.08;;;1.08;;
17993;SDS011;9122;48.406;9.984;2022-08-20T15:52:22;0.82;;;0.82;;
17993;SDS011;9122;48.406;9.984;2022-08-20T15:55:10;0.80;;;0.80;;
17993;SDS011;9122;48.406;9.984;2022-08-20T15:58:07;0.80;;;0.80;;
17993;SDS011;9122;48.406;9.984;2022-08-20T16:04:42;1.23;;;1.23;;
17993;SDS011;9122;48.406;9.984;2022-08-20T16:16:39;0.82;;;0.82;;
17993;SDS011;9122;48.406;9.984;2022-08-20T16:19:37;1.23;;;1.20;;
17993;SDS011;9122;48.406;9.984;2022-08-20T16:22:32;0.80;;;0.80;;
17993;SDS011;9122;48.406;9.984;2022-08-20T16:25:19;1.30;;;1.20;;
17993;SDS011;9122;48.406;9.984;2022-08-20T16:28:12;1.00;;;1.00;;
17993;SDS011;9122;48.406;9.984;2022-08-20T16:31:09;1.27;;;1.20;;
17993;SDS011;9122;48.406;9.984;2022-08-20T16:34:00;1.00;;;1.00;;
17993;SDS011;9122;48.406;9.984;2022-08-20T16:37:16;1.25;;;1.10;;
17993;SDS011;9122;48.406;9.984;2022-08-20T16:43:19;1.42;;;1.33;;
17993;SDS011;9122;48.406;9.984;2022-08-20T16:46:16;1.10;;;1.10;;
17993;SDS011;9122;48.406;9.984;2022-08-20T16:49:09;2.20;;;1.60;;
17993;SDS011;9122;48.406;9.984;2022-08-20T16:51:59;1.63;;;1.20;;
17993;SDS011;9122;48.406;9.984;2022-08-20T16:54:44;1.50;;;1.40;;
17993;SDS011;9122;48.406;9.984;2022-08-20T16:57:28;1.48;;;1.38;;
17993;SDS011;9122;48.406;9.984;2022-08-20T17:03:09;1.40;;;1.30;;
17993;SDS011;9122;48.406;9.984;2022-08-20T17:06:16;1.00;;;1.00;;
17993;SDS011;9122;48.406;9.984;2022-08-20T17:09:35;0.90;;;0.90;;
17993;SDS011;9122;48.406;9.984;2022-08-20T17:12:27;2.35;;;1.30;;
17993;SDS011;9122;48.406;9.984;2022-08-20T17:15:19;2.80;;;1.20;;
17993;SDS011;9122;48.406;9.984;2022-08-20T17:18:25;1.65;;;1.55;;